sensor_id;sensor_type;location;lat;lon;timestamp;P1;durP1;ratioP1;P2;durP2;ratioP2
33714;SDS011;20043;50.998;4.754;2023-04-24T00:00:50;27.98;;;13.48;;
33714;SDS011;20043;50.998;4.754;2023-04-24T00:03:17;22.23;;;14.10;;
33714;SDS011;20043;50.998;4.754;2023-04-24T00:05:45;25.55;;;15.48;;
33714;SDS011;20043;50.998;4.754;2023-04-24T00:08:11;29.17;;;14.93;;
33714;SDS011;20043;50.998;4.754;2023-04-24T00:10:37;32.83;;;16.95;;
33714;SDS011;20043;50.998;4.754;2023-04-24T00:13:03;31.05;;;15.50;;
33714;SDS011;20043;50.998;4.754;2023-04-24T00:15:28;35.15;;;15.73;;
33714;SDS011;20043;50.998;4.754;2023-04-24T00:17:54;26.40;;;16.65;;
33714;SDS011;20043;50.998;4.754;2023-04-24T00:20:20;30.33;;;17.05;;
33714;SDS011;20043;50.998;4.754;2023-04-24T00:22:46;28.88;;;16.80;;
33714;SDS011;20043;50.998;4.754;2023-04-24T00:25:11;29.73;;;17.65;;
33714;SDS011;20043;50.998;4.754;2023-04-24T00:27:37;32.10;;;18.48;;
33714;SDS011;20043;50.998;4.754;2023-04-24T00:30:03;29.02;;;16.77;;
33714;SDS011;20043;50.998;4.754;2023-04-24T00:32:30;29.08;;;16.88;;
33714;SDS011;20043;50.998;4.754;2023-04-24T00:35:01;42.55;;;17.45;;
33714;SDS011;20043;50.998;4.754;2023-04-24T00:37:27;36.92;;;18.30;;
33714;SDS011;20043;50.998;4.754;2023-04-24T00:39:53;29.80;;;16.45;;
33714;SDS011;20043;50.998;4.754;2023-04-24T00:42:19;35.13;;;17.38;;
33714;SDS011;20043;50.998;4.754;2023-04-24T00:44:45;31.30;;;17.83;;
33714;SDS011;20043;50.998;4.754;2023-04-24T00:47:11;29.73;;;17.25;;
33714;SDS011;20043;50.998;4.754;2023-04-24T00:49:38;29.23;;;18.13;;
33714;SDS011;20043;50.998;4.754;2023-04-24T00:52:03;34.35;;;17.63;;
33714;SDS011;20043;50.998;4.754;2023-04-24T00:54:32;32.63;;;17.33;;
33714;SDS011;20043;50.998;4.754;2023-04-24T00:56:58;34.97;;;17.17;;
33714;SDS011;20043;50.998;4.754;2023-04-24T00:59:24;35.80;;;16.45;;
33714;SDS011;20043;50.998;4.754;2023-04-24T01:01:49;30.45;;;16.90;;
33714;SDS011;20043;50.998;4.754;2023-04-24T01:04:16;27.58;;;16.02;;
33714;SDS011;20043;50.998;4.754;2023-04-24T01:06:43;31.77;;;16.65;;
33714;SDS011;20043;50.998;4.754;2023-04-24T01:09:10;32.88;;;16.38;;
33714;SDS011;20043;50.998;4.754;2023-04-24T01:11:37;34.30;;;17.38;;
33714;SDS011;20043;50.998;4.754;2023-04-24T01:14:03;35.97;;;16.70;;
33714;SDS011;20043;50.998;4.754;2023-04-24T01:16:29;28.83;;;16.58;;
33714;SDS011;20043;50.998;4.754;2023-04-24T01:18:54;32.13;;;16.58;;
33714;SDS011;20043;50.998;4.754;2023-04-24T01:21:20;30.48;;;16.20;;
33714;SDS011;20043;50.998;4.754;2023-04-24T01:23:48;33.95;;;16.88;;
33714;SDS011;20043;50.998;4.754;2023-04-24T01:26:15;29.52;;;16.50;;
33714;SDS011;20043;50.998;4.754;2023-04-24T01:28:41;34.72;;;17.55;;
33714;SDS011;20043;50.998;4.754;2023-04-24T01:31:07;29.00;;;16.10;;
33714;SDS011;20043;50.998;4.754;2023-04-24T01:33:33;30.45;;;18.50;;
33714;SDS011;20043;50.998;4.754;2023-04-24T01:35:58;35.13;;;16.83;;
33714;SDS011;20043;50.998;4.754;2023-04-24T01:38:25;34.15;;;17.30;;
33714;SDS011;20043;50.998;4.754;2023-04-24T01:40:50;32.97;;;16.27;;
33714;SDS011;20043;50.998;4.754;2023-04-24T01:43:16;33.15;;;16.85;;
33714;SDS011;20043;50.998;4.754;2023-04-24T01:45:42;25.65;;;16.60;;
33714;SDS011;20043;50.998;4.754;2023-04-24T01:48:08;26.45;;;15.50;;
33714;SDS011;20043;50.998;4.754;2023-04-24T01:50:34;27.20;;;15.60;;
33714;SDS011;20043;50.998;4.754;2023-04-24T01:53:00;27.42;;;15.50;;
33714;SDS011;20043;50.998;4.754;2023-04-24T01:55:25;27.38;;;15.20;;
33714;SDS011;20043;50.998;4.754;2023-04-24T01:57:52;25.50;;;15.23;;
33714;SDS011;20043;50.998;4.754;2023-04-24T02:00:20;28.27;;;15.88;;
33714;SDS011;20043;50.998;4.754;2023-04-24T02:02:45;24.67;;;15.15;;
33714;SDS011;20043;50.998;4.754;2023-04-24T02:05:11;27.58;;;16.05;;
33714;SDS011;20043;50.998;4.754;2023-04-24T02:07:37;24.35;;;15.82;;
33714;SDS011;20043;50.998;4.754;2023-04-24T02:10:03;24.55;;;15.00;;
33714;SDS011;20043;50.998;4.754;2023-04-24T02:12:29;26.17;;;14.63;;
33714;SDS011;20043;50.998;4.754;2023-04-24T02:14:55;33.00;;;15.57;;
33714;SDS011;20043;50.998;4.754;2023-04-24T02:17:21;24.85;;;14.20;;
33714;SDS011;20043;50.998;4.754;2023-04-24T02:19:47;22.63;;;13.45;;
33714;SDS011;20043;50.998;4.754;2023-04-24T02:22:13;20.20;;;13.30;;
33714;SDS011;20043;50.998;4.754;2023-04-24T02:24:38;24.05;;;13.80;;
33714;SDS011;20043;50.998;4.754;2023-04-24T02:27:04;22.42;;;13.07;;
33714;SDS011;20043;50.998;4.754;2023-04-24T02:29:30;17.38;;;11.82;;
33714;SDS011;20043;50.998;4.754;2023-04-24T02:31:56;20.85;;;12.43;;
33714;SDS011;20043;50.998;4.754;2023-04-24T02:34:22;17.08;;;11.18;;
33714;SDS011;20043;50.998;4.754;2023-04-24T02:36:48;19.52;;;12.35;;
33714;SDS011;20043;50.998;4.754;2023-04-24T02:39:14;22.77;;;12.38;;
33714;SDS011;20043;50.998;4.754;2023-04-24T02:41:41;18.45;;;11.57;;
33714;SDS011;20043;50.998;4.754;2023-04-24T02:44:07;19.63;;;12.60;;
33714;SDS011;20043;50.998;4.754;2023-04-24T02:46:33;19.30;;;12.25;;
33714;SDS011;20043;50.998;4.754;2023-04-24T02:48:59;19.88;;;13.02;;
33714;SDS011;20043;50.998;4.754;2023-04-24T02:51:25;26.48;;;14.73;;
33714;SDS011;20043;50.998;4.754;2023-04-24T02:53:51;22.33;;;15.02;;
33714;SDS011;20043;50.998;4.754;2023-04-24T02:56:17;24.52;;;15.55;;
33714;SDS011;20043;50.998;4.754;2023-04-24T02:58:43;22.80;;;15.82;;
33714;SDS011;20043;50.998;4.754;2023-04-24T03:01:08;30.20;;;17.50;;
33714;SDS011;20043;50.998;4.754;2023-04-24T03:03:37;29.02;;;17.88;;
33714;SDS011;20043;50.998;4.754;2023-04-24T03:06:03;27.13;;;18.08;;
33714;SDS011;20043;50.998;4.754;2023-04-24T03:08:30;28.90;;;16.92;;
33714;SDS011;20043;50.998;4.754;2023-04-24T03:10:57;28.27;;;17.55;;
33714;SDS011;20043;50.998;4.754;2023-04-24T03:13:22;30.48;;;17.88;;
33714;SDS011;20043;50.998;4.754;2023-04-24T03:15:48;27.00;;;17.48;;
33714;SDS011;20043;50.998;4.754;2023-04-24T03:18:14;25.70;;;17.33;;
33714;SDS011;20043;50.998;4.754;2023-04-24T03:20:40;27.48;;;16.98;;
33714;SDS011;20043;50.998;4.754;2023-04-24T03:23:05;25.65;;;17.80;;
33714;SDS011;20043;50.998;4.754;2023-04-24T03:25:31;25.90;;;16.77;;
33714;SDS011;20043;50.998;4.754;2023-04-24T03:27:57;27.33;;;16.98;;
33714;SDS011;20043;50.998;4.754;2023-04-24T03:30:22;26.42;;;17.58;;
33714;SDS011;20043;50.998;4.754;2023-04-24T03:32:48;26.73;;;17.90;;
33714;SDS011;20043;50.998;4.754;2023-04-24T03:35:13;26.63;;;18.08;;
33714;SDS011;20043;50.998;4.754;2023-04-24T03:37:39;24.48;;;17.77;;
33714;SDS011;20043;50.998;4.754;2023-04-24T03:40:05;24.05;;;17.95;;
33714;SDS011;20043;50.998;4.754;2023-04-24T03:42:32;27.83;;;18.55;;
33714;SDS011;20043;50.998;4.754;2023-04-24T03:44:57;31.65;;;19.13;;
33714;SDS011;20043;50.998;4.754;2023-04-24T03:47:23;26.73;;;18.85;;
33714;SDS011;20043;50.998;4.754;2023-04-24T03:49:49;30.60;;;19.63;;
33714;SDS011;20043;50.998;4.754;2023-04-24T03:52:15;25.10;;;17.80;;
33714;SDS011;20043;50.998;4.754;2023-04-24T03:54:40;26.88;;;18.25;;
33714;SDS011;20043;50.998;4.754;2023-04-24T03:57:06;32.47;;;18.42;;
33714;SDS011;20043;50.998;4.754;2023-04-24T03:59:31;26.67;;;16.73;;
33714;SDS011;20043;50.998;4.754;2023-04-24T04:01:57;23.33;;;15.80;;
33714;SDS011;20043;50.998;4.754;2023-04-24T04:04:22;23.83;;;16.05;;
33714;SDS011;20043;50.998;4.754;2023-04-24T04:06:48;19.30;;;15.10;;
33714;SDS011;20043;50.998;4.754;2023-04-24T04:09:14;23.40;;;14.75;;
33714;SDS011;20043;50.998;4.754;2023-04-24T04:11:40;19.70;;;14.63;;
33714;SDS011;20043;50.998;4.754;2023-04-24T04:14:05;27.85;;;14.88;;
33714;SDS011;20043;50.998;4.754;2023-04-24T04:16:31;17.65;;;13.70;;
33714;SDS011;20043;50.998;4.754;2023-04-24T04:18:57;19.75;;;13.43;;
33714;SDS011;20043;50.998;4.754;2023-04-24T04:21:22;15.73;;;12.20;;
33714;SDS011;20043;50.998;4.754;2023-04-24T04:23:48;19.52;;;11.90;;
33714;SDS011;20043;50.998;4.754;2023-04-24T04:26:13;14.55;;;11.02;;
33714;SDS011;20043;50.998;4.754;2023-04-24T04:28:39;18.02;;;11.05;;
33714;SDS011;20043;50.998;4.754;2023-04-24T04:31:05;16.13;;;10.65;;
33714;SDS011;20043;50.998;4.754;2023-04-24T04:33:32;20.23;;;11.48;;
33714;SDS011;20043;50.998;4.754;2023-04-24T04:35:58;17.30;;;11.13;;
33714;SDS011;20043;50.998;4.754;2023-04-24T04:38:25;18.63;;;10.90;;
33714;SDS011;20043;50.998;4.754;2023-04-24T04:40:54;15.68;;;10.85;;
33714;SDS011;20043;50.998;4.754;2023-04-24T04:43:22;16.88;;;10.80;;
33714;SDS011;20043;50.998;4.754;2023-04-24T04:45:49;18.05;;;11.13;;
33714;SDS011;20043;50.998;4.754;2023-04-24T04:48:16;18.20;;;11.25;;
33714;SDS011;20043;50.998;4.754;2023-04-24T04:50:42;19.77;;;11.15;;
33714;SDS011;20043;50.998;4.754;2023-04-24T04:53:08;16.83;;;10.40;;
33714;SDS011;20043;50.998;4.754;2023-04-24T04:55:34;13.60;;;10.57;;
33714;SDS011;20043;50.998;4.754;2023-04-24T04:57:59;14.75;;;9.02;;
33714;SDS011;20043;50.998;4.754;2023-04-24T05:00:25;14.75;;;9.15;;
33714;SDS011;20043;50.998;4.754;2023-04-24T05:02:52;16.73;;;9.35;;
33714;SDS011;20043;50.998;4.754;2023-04-24T05:05:17;12.82;;;8.40;;
33714;SDS011;20043;50.998;4.754;2023-04-24T05:07:44;14.20;;;8.93;;
33714;SDS011;20043;50.998;4.754;2023-04-24T05:10:10;12.85;;;9.05;;
33714;SDS011;20043;50.998;4.754;2023-04-24T05:12:35;15.13;;;9.65;;
33714;SDS011;20043;50.998;4.754;2023-04-24T05:15:01;21.25;;;10.90;;
33714;SDS011;20043;50.998;4.754;2023-04-24T05:17:27;17.95;;;10.52;;
33714;SDS011;20043;50.998;4.754;2023-04-24T05:19:53;15.50;;;10.50;;
33714;SDS011;20043;50.998;4.754;2023-04-24T05:22:19;19.30;;;11.13;;
33714;SDS011;20043;50.998;4.754;2023-04-24T05:24:46;18.13;;;11.50;;
33714;SDS011;20043;50.998;4.754;2023-04-24T05:27:12;18.35;;;12.18;;
33714;SDS011;20043;50.998;4.754;2023-04-24T05:29:38;18.35;;;13.07;;
33714;SDS011;20043;50.998;4.754;2023-04-24T05:32:05;22.15;;;13.20;;
33714;SDS011;20043;50.998;4.754;2023-04-24T05:34:31;21.30;;;13.50;;
33714;SDS011;20043;50.998;4.754;2023-04-24T05:36:57;22.48;;;12.93;;
33714;SDS011;20043;50.998;4.754;2023-04-24T05:39:23;24.02;;;12.98;;
33714;SDS011;20043;50.998;4.754;2023-04-24T05:41:50;23.30;;;14.38;;
33714;SDS011;20043;50.998;4.754;2023-04-24T05:44:15;28.00;;;15.15;;
33714;SDS011;20043;50.998;4.754;2023-04-24T05:46:41;32.70;;;17.60;;
33714;SDS011;20043;50.998;4.754;2023-04-24T05:49:07;32.83;;;17.80;;
33714;SDS011;20043;50.998;4.754;2023-04-24T05:51:32;35.65;;;18.25;;
33714;SDS011;20043;50.998;4.754;2023-04-24T05:53:58;35.33;;;18.40;;
33714;SDS011;20043;50.998;4.754;2023-04-24T05:56:23;29.30;;;16.25;;
33714;SDS011;20043;50.998;4.754;2023-04-24T05:58:49;29.02;;;16.70;;
33714;SDS011;20043;50.998;4.754;2023-04-24T06:01:15;35.25;;;17.13;;
33714;SDS011;20043;50.998;4.754;2023-04-24T06:03:40;29.98;;;17.55;;
33714;SDS011;20043;50.998;4.754;2023-04-24T06:06:06;31.67;;;17.08;;
33714;SDS011;20043;50.998;4.754;2023-04-24T06:08:33;30.70;;;17.85;;
33714;SDS011;20043;50.998;4.754;2023-04-24T06:10:59;32.72;;;16.73;;
33714;SDS011;20043;50.998;4.754;2023-04-24T06:13:25;32.50;;;16.95;;
33714;SDS011;20043;50.998;4.754;2023-04-24T06:15:50;35.97;;;18.05;;
33714;SDS011;20043;50.998;4.754;2023-04-24T06:18:18;33.75;;;18.02;;
33714;SDS011;20043;50.998;4.754;2023-04-24T06:20:44;42.25;;;18.60;;
33714;SDS011;20043;50.998;4.754;2023-04-24T06:23:10;30.10;;;17.63;;
33714;SDS011;20043;50.998;4.754;2023-04-24T06:25:36;30.63;;;17.50;;
33714;SDS011;20043;50.998;4.754;2023-04-24T06:28:02;36.47;;;18.88;;
33714;SDS011;20043;50.998;4.754;2023-04-24T06:30:28;26.83;;;16.58;;
33714;SDS011;20043;50.998;4.754;2023-04-24T06:32:54;32.03;;;17.58;;
33714;SDS011;20043;50.998;4.754;2023-04-24T06:35:19;33.15;;;17.10;;
33714;SDS011;20043;50.998;4.754;2023-04-24T06:37:45;31.92;;;17.42;;
33714;SDS011;20043;50.998;4.754;2023-04-24T06:40:11;33.22;;;19.00;;
33714;SDS011;20043;50.998;4.754;2023-04-24T06:42:37;29.95;;;17.90;;
33714;SDS011;20043;50.998;4.754;2023-04-24T06:45:02;32.42;;;17.45;;
33714;SDS011;20043;50.998;4.754;2023-04-24T06:47:29;29.50;;;17.60;;
33714;SDS011;20043;50.998;4.754;2023-04-24T06:49:55;29.90;;;17.85;;
33714;SDS011;20043;50.998;4.754;2023-04-24T06:52:20;30.48;;;18.88;;
33714;SDS011;20043;50.998;4.754;2023-04-24T06:54:46;36.70;;;19.33;;
33714;SDS011;20043;50.998;4.754;2023-04-24T06:57:11;34.28;;;19.55;;
33714;SDS011;20043;50.998;4.754;2023-04-24T06:59:37;37.08;;;21.48;;
33714;SDS011;20043;50.998;4.754;2023-04-24T07:02:03;30.55;;;19.63;;
33714;SDS011;20043;50.998;4.754;2023-04-24T07:04:29;37.08;;;19.90;;
33714;SDS011;20043;50.998;4.754;2023-04-24T07:06:55;35.60;;;20.63;;
33714;SDS011;20043;50.998;4.754;2023-04-24T07:09:22;40.83;;;21.58;;
33714;SDS011;20043;50.998;4.754;2023-04-24T07:11:50;39.75;;;21.60;;
33714;SDS011;20043;50.998;4.754;2023-04-24T07:14:16;45.92;;;22.77;;
33714;SDS011;20043;50.998;4.754;2023-04-24T07:16:42;42.97;;;21.63;;
33714;SDS011;20043;50.998;4.754;2023-04-24T07:19:08;41.75;;;21.15;;
33714;SDS011;20043;50.998;4.754;2023-04-24T07:21:34;38.67;;;20.58;;
33714;SDS011;20043;50.998;4.754;2023-04-24T07:24:00;38.78;;;22.33;;
33714;SDS011;20043;50.998;4.754;2023-04-24T07:26:26;38.15;;;20.23;;
33714;SDS011;20043;50.998;4.754;2023-04-24T07:28:53;34.90;;;20.90;;
33714;SDS011;20043;50.998;4.754;2023-04-24T07:31:19;35.50;;;20.40;;
33714;SDS011;20043;50.998;4.754;2023-04-24T07:33:45;37.85;;;20.00;;
33714;SDS011;20043;50.998;4.754;2023-04-24T07:36:11;40.03;;;20.67;;
33714;SDS011;20043;50.998;4.754;2023-04-24T07:38:41;32.67;;;17.98;;
33714;SDS011;20043;50.998;4.754;2023-04-24T07:41:07;25.98;;;16.42;;
33714;SDS011;20043;50.998;4.754;2023-04-24T07:43:33;29.38;;;15.05;;
33714;SDS011;20043;50.998;4.754;2023-04-24T07:45:59;31.90;;;15.23;;
33714;SDS011;20043;50.998;4.754;2023-04-24T07:48:25;28.60;;;14.70;;
33714;SDS011;20043;50.998;4.754;2023-04-24T07:50:51;24.65;;;12.45;;
33714;SDS011;20043;50.998;4.754;2023-04-24T07:53:17;24.10;;;12.27;;
33714;SDS011;20043;50.998;4.754;2023-04-24T07:55:43;23.48;;;10.80;;
33714;SDS011;20043;50.998;4.754;2023-04-24T07:58:09;20.25;;;9.52;;
33714;SDS011;20043;50.998;4.754;2023-04-24T08:00:41;22.02;;;9.00;;
33714;SDS011;20043;50.998;4.754;2023-04-24T08:03:07;20.65;;;8.38;;
33714;SDS011;20043;50.998;4.754;2023-04-24T08:05:33;19.52;;;8.15;;
33714;SDS011;20043;50.998;4.754;2023-04-24T08:07:58;19.20;;;7.93;;
33714;SDS011;20043;50.998;4.754;2023-04-24T08:10:24;26.10;;;8.18;;
33714;SDS011;20043;50.998;4.754;2023-04-24T08:12:50;18.85;;;7.50;;
33714;SDS011;20043;50.998;4.754;2023-04-24T08:15:16;23.95;;;7.95;;
33714;SDS011;20043;50.998;4.754;2023-04-24T08:17:42;19.23;;;6.82;;
33714;SDS011;20043;50.998;4.754;2023-04-24T08:20:08;18.58;;;6.30;;
33714;SDS011;20043;50.998;4.754;2023-04-24T08:22:38;25.17;;;7.82;;
33714;SDS011;20043;50.998;4.754;2023-04-24T08:25:05;26.65;;;8.18;;
33714;SDS011;20043;50.998;4.754;2023-04-24T08:27:31;26.67;;;8.43;;
33714;SDS011;20043;50.998;4.754;2023-04-24T08:29:57;24.75;;;7.32;;
33714;SDS011;20043;50.998;4.754;2023-04-24T08:32:24;21.17;;;6.90;;
33714;SDS011;20043;50.998;4.754;2023-04-24T08:34:52;31.70;;;9.30;;
33714;SDS011;20043;50.998;4.754;2023-04-24T08:37:18;19.13;;;8.10;;
33714;SDS011;20043;50.998;4.754;2023-04-24T08:39:44;23.50;;;9.27;;
33714;SDS011;20043;50.998;4.754;2023-04-24T08:42:09;27.20;;;8.80;;
33714;SDS011;20043;50.998;4.754;2023-04-24T08:44:37;29.75;;;10.27;;
33714;SDS011;20043;50.998;4.754;2023-04-24T08:47:04;30.40;;;10.88;;
33714;SDS011;20043;50.998;4.754;2023-04-24T08:49:30;30.33;;;12.80;;
33714;SDS011;20043;50.998;4.754;2023-04-24T08:51:56;32.85;;;11.35;;
33714;SDS011;20043;50.998;4.754;2023-04-24T08:54:22;31.10;;;12.18;;
33714;SDS011;20043;50.998;4.754;2023-04-24T08:56:48;31.90;;;12.13;;
33714;SDS011;20043;50.998;4.754;2023-04-24T08:59:15;29.52;;;10.70;;
33714;SDS011;20043;50.998;4.754;2023-04-24T09:01:41;29.67;;;10.43;;
33714;SDS011;20043;50.998;4.754;2023-04-24T09:04:08;26.40;;;9.88;;
33714;SDS011;20043;50.998;4.754;2023-04-24T09:06:38;24.90;;;9.35;;
33714;SDS011;20043;50.998;4.754;2023-04-24T09:09:04;28.00;;;10.35;;
33714;SDS011;20043;50.998;4.754;2023-04-24T09:11:30;36.58;;;11.85;;
33714;SDS011;20043;50.998;4.754;2023-04-24T09:13:57;31.27;;;11.32;;
33714;SDS011;20043;50.998;4.754;2023-04-24T09:16:25;26.10;;;11.95;;
33714;SDS011;20043;50.998;4.754;2023-04-24T09:18:51;29.38;;;9.23;;
33714;SDS011;20043;50.998;4.754;2023-04-24T09:21:17;20.52;;;8.63;;
33714;SDS011;20043;50.998;4.754;2023-04-24T09:23:45;20.17;;;8.18;;
33714;SDS011;20043;50.998;4.754;2023-04-24T09:26:10;23.13;;;7.90;;
33714;SDS011;20043;50.998;4.754;2023-04-24T09:28:37;22.95;;;7.00;;
33714;SDS011;20043;50.998;4.754;2023-04-24T09:31:14;24.52;;;7.35;;
33714;SDS011;20043;50.998;4.754;2023-04-24T09:33:59;21.77;;;7.13;;
33714;SDS011;20043;50.998;4.754;2023-04-24T09:36:35;22.92;;;8.70;;
33714;SDS011;20043;50.998;4.754;2023-04-24T09:39:03;23.67;;;8.60;;
33714;SDS011;20043;50.998;4.754;2023-04-24T09:41:31;23.23;;;9.00;;
33714;SDS011;20043;50.998;4.754;2023-04-24T09:43:58;25.40;;;8.27;;
33714;SDS011;20043;50.998;4.754;2023-04-24T09:46:44;21.88;;;8.82;;
33714;SDS011;20043;50.998;4.754;2023-04-24T09:49:14;20.98;;;7.90;;
33714;SDS011;20043;50.998;4.754;2023-04-24T09:51:41;19.98;;;7.10;;
33714;SDS011;20043;50.998;4.754;2023-04-24T09:54:14;18.58;;;7.15;;
33714;SDS011;20043;50.998;4.754;2023-04-24T09:56:45;19.45;;;7.00;;
33714;SDS011;20043;50.998;4.754;2023-04-24T09:59:13;21.40;;;8.20;;
33714;SDS011;20043;50.998;4.754;2023-04-24T10:01:40;18.48;;;6.70;;
33714;SDS011;20043;50.998;4.754;2023-04-24T10:04:19;17.30;;;6.85;;
33714;SDS011;20043;50.998;4.754;2023-04-24T10:06:46;15.55;;;6.20;;
33714;SDS011;20043;50.998;4.754;2023-04-24T10:09:14;16.33;;;5.63;;
33714;SDS011;20043;50.998;4.754;2023-04-24T10:11:44;18.88;;;5.32;;
33714;SDS011;20043;50.998;4.754;2023-04-24T10:14:15;15.32;;;4.53;;
33714;SDS011;20043;50.998;4.754;2023-04-24T10:16:43;15.15;;;4.60;;
33714;SDS011;20043;50.998;4.754;2023-04-24T10:19:11;17.35;;;4.75;;
33714;SDS011;20043;50.998;4.754;2023-04-24T10:21:38;10.77;;;4.45;;
33714;SDS011;20043;50.998;4.754;2023-04-24T10:24:07;14.05;;;4.00;;
33714;SDS011;20043;50.998;4.754;2023-04-24T10:26:34;13.18;;;4.53;;
33714;SDS011;20043;50.998;4.754;2023-04-24T10:29:00;10.73;;;3.95;;
33714;SDS011;20043;50.998;4.754;2023-04-24T10:31:26;14.45;;;4.38;;
33714;SDS011;20043;50.998;4.754;2023-04-24T10:33:55;15.95;;;4.55;;
33714;SDS011;20043;50.998;4.754;2023-04-24T10:36:22;14.93;;;4.28;;
33714;SDS011;20043;50.998;4.754;2023-04-24T10:38:51;16.45;;;3.95;;
33714;SDS011;20043;50.998;4.754;2023-04-24T10:41:20;12.45;;;4.30;;
33714;SDS011;20043;50.998;4.754;2023-04-24T10:43:48;13.90;;;4.65;;
33714;SDS011;20043;50.998;4.754;2023-04-24T10:46:29;19.60;;;5.13;;
33714;SDS011;20043;50.998;4.754;2023-04-24T10:48:55;13.63;;;5.18;;
33714;SDS011;20043;50.998;4.754;2023-04-24T10:51:23;16.52;;;6.35;;
33714;SDS011;20043;50.998;4.754;2023-04-24T10:53:50;12.55;;;4.88;;
33714;SDS011;20043;50.998;4.754;2023-04-24T10:56:16;19.30;;;5.82;;
33714;SDS011;20043;50.998;4.754;2023-04-24T10:58:44;15.98;;;4.80;;
33714;SDS011;20043;50.998;4.754;2023-04-24T11:01:25;15.15;;;5.10;;
33714;SDS011;20043;50.998;4.754;2023-04-24T11:03:56;15.02;;;4.80;;
33714;SDS011;20043;50.998;4.754;2023-04-24T11:06:33;13.50;;;4.45;;
33714;SDS011;20043;50.998;4.754;2023-04-24T11:09:06;12.82;;;4.22;;
33714;SDS011;20043;50.998;4.754;2023-04-24T11:11:34;13.25;;;4.10;;
33714;SDS011;20043;50.998;4.754;2023-04-24T11:14:01;10.02;;;4.13;;
33714;SDS011;20043;50.998;4.754;2023-04-24T11:21:44;12.98;;;3.85;;
33714;SDS011;20043;50.998;4.754;2023-04-24T11:26:55;11.23;;;3.58;;
33714;SDS011;20043;50.998;4.754;2023-04-24T11:29:22;12.65;;;3.25;;
33714;SDS011;20043;50.998;4.754;2023-04-24T11:32:14;10.13;;;3.30;;
33714;SDS011;20043;50.998;4.754;2023-04-24T11:34:40;10.80;;;3.17;;
33714;SDS011;20043;50.998;4.754;2023-04-24T11:37:10;20.00;;;3.33;;
33714;SDS011;20043;50.998;4.754;2023-04-24T11:39:36;8.38;;;2.75;;
33714;SDS011;20043;50.998;4.754;2023-04-24T11:42:02;9.88;;;3.47;;
33714;SDS011;20043;50.998;4.754;2023-04-24T11:44:31;14.65;;;4.00;;
33714;SDS011;20043;50.998;4.754;2023-04-24T11:46:58;8.93;;;3.15;;
33714;SDS011;20043;50.998;4.754;2023-04-24T11:49:24;16.13;;;3.65;;
33714;SDS011;20043;50.998;4.754;2023-04-24T11:51:49;13.10;;;4.00;;
33714;SDS011;20043;50.998;4.754;2023-04-24T11:54:15;13.35;;;3.65;;
33714;SDS011;20043;50.998;4.754;2023-04-24T11:56:44;12.05;;;4.28;;
33714;SDS011;20043;50.998;4.754;2023-04-24T11:59:11;11.13;;;4.53;;
33714;SDS011;20043;50.998;4.754;2023-04-24T12:01:46;11.18;;;4.68;;
33714;SDS011;20043;50.998;4.754;2023-04-24T12:04:14;14.45;;;4.70;;
33714;SDS011;20043;50.998;4.754;2023-04-24T12:07:02;12.40;;;5.00;;
33714;SDS011;20043;50.998;4.754;2023-04-24T12:09:27;11.88;;;4.65;;
33714;SDS011;20043;50.998;4.754;2023-04-24T12:11:56;12.75;;;4.68;;
33714;SDS011;20043;50.998;4.754;2023-04-24T12:14:22;11.18;;;4.63;;
33714;SDS011;20043;50.998;4.754;2023-04-24T12:16:48;10.25;;;3.75;;
33714;SDS011;20043;50.998;4.754;2023-04-24T12:19:21;13.88;;;4.60;;
33714;SDS011;20043;50.998;4.754;2023-04-24T12:22:05;10.48;;;4.25;;
33714;SDS011;20043;50.998;4.754;2023-04-24T12:24:31;9.02;;;4.28;;
33714;SDS011;20043;50.998;4.754;2023-04-24T12:26:57;11.55;;;4.72;;
33714;SDS011;20043;50.998;4.754;2023-04-24T12:29:23;13.65;;;5.05;;
33714;SDS011;20043;50.998;4.754;2023-04-24T12:31:52;10.68;;;4.32;;
33714;SDS011;20043;50.998;4.754;2023-04-24T12:34:19;15.13;;;5.25;;
33714;SDS011;20043;50.998;4.754;2023-04-24T12:36:45;11.00;;;4.60;;
33714;SDS011;20043;50.998;4.754;2023-04-24T12:39:18;15.55;;;4.85;;
33714;SDS011;20043;50.998;4.754;2023-04-24T12:42:25;11.68;;;5.18;;
33714;SDS011;20043;50.998;4.754;2023-04-24T12:44:36;12.55;;;4.72;;
33714;SDS011;20043;50.998;4.754;2023-04-24T12:47:02;13.63;;;4.68;;
33714;SDS011;20043;50.998;4.754;2023-04-24T12:49:29;9.38;;;4.10;;
33714;SDS011;20043;50.998;4.754;2023-04-24T12:51:55;11.75;;;5.00;;
33714;SDS011;20043;50.998;4.754;2023-04-24T12:54:21;10.73;;;3.90;;
33714;SDS011;20043;50.998;4.754;2023-04-24T12:56:47;10.57;;;4.10;;
33714;SDS011;20043;50.998;4.754;2023-04-24T12:59:13;14.13;;;4.32;;
33714;SDS011;20043;50.998;4.754;2023-04-24T13:01:38;14.10;;;4.53;;
33714;SDS011;20043;50.998;4.754;2023-04-24T13:04:05;9.20;;;4.15;;
33714;SDS011;20043;50.998;4.754;2023-04-24T13:06:30;10.23;;;4.72;;
33714;SDS011;20043;50.998;4.754;2023-04-24T13:08:56;13.05;;;4.18;;
33714;SDS011;20043;50.998;4.754;2023-04-24T13:11:23;14.73;;;4.28;;
33714;SDS011;20043;50.998;4.754;2023-04-24T13:13:49;9.60;;;4.00;;
33714;SDS011;20043;50.998;4.754;2023-04-24T13:16:15;7.65;;;3.53;;
33714;SDS011;20043;50.998;4.754;2023-04-24T13:18:41;10.05;;;3.22;;
33714;SDS011;20043;50.998;4.754;2023-04-24T13:21:06;9.82;;;3.58;;
33714;SDS011;20043;50.998;4.754;2023-04-24T13:23:32;8.80;;;3.20;;
33714;SDS011;20043;50.998;4.754;2023-04-24T13:25:58;8.07;;;3.10;;
33714;SDS011;20043;50.998;4.754;2023-04-24T13:28:24;9.73;;;3.28;;
33714;SDS011;20043;50.998;4.754;2023-04-24T13:30:50;7.13;;;2.55;;
33714;SDS011;20043;50.998;4.754;2023-04-24T13:33:16;7.18;;;2.78;;
33714;SDS011;20043;50.998;4.754;2023-04-24T13:35:42;12.88;;;2.72;;
33714;SDS011;20043;50.998;4.754;2023-04-24T13:38:07;10.30;;;3.08;;
33714;SDS011;20043;50.998;4.754;2023-04-24T13:40:33;9.65;;;3.60;;
33714;SDS011;20043;50.998;4.754;2023-04-24T13:42:58;12.27;;;3.92;;
33714;SDS011;20043;50.998;4.754;2023-04-24T13:45:24;7.28;;;3.13;;
33714;SDS011;20043;50.998;4.754;2023-04-24T13:47:50;8.48;;;3.53;;
33714;SDS011;20043;50.998;4.754;2023-04-24T13:50:18;9.73;;;3.60;;
33714;SDS011;20043;50.998;4.754;2023-04-24T13:52:44;8.55;;;2.70;;
33714;SDS011;20043;50.998;4.754;2023-04-24T13:55:10;10.73;;;3.47;;
33714;SDS011;20043;50.998;4.754;2023-04-24T13:57:35;9.30;;;2.75;;
33714;SDS011;20043;50.998;4.754;2023-04-24T14:00:02;8.20;;;3.05;;
33714;SDS011;20043;50.998;4.754;2023-04-24T14:02:29;7.60;;;2.40;;
33714;SDS011;20043;50.998;4.754;2023-04-24T14:04:55;5.45;;;2.72;;
33714;SDS011;20043;50.998;4.754;2023-04-24T14:07:20;7.05;;;2.05;;
33714;SDS011;20043;50.998;4.754;2023-04-24T14:09:46;10.52;;;2.60;;
33714;SDS011;20043;50.998;4.754;2023-04-24T14:12:12;9.27;;;2.83;;
33714;SDS011;20043;50.998;4.754;2023-04-24T14:14:46;12.73;;;2.80;;
33714;SDS011;20043;50.998;4.754;2023-04-24T14:17:13;6.00;;;2.50;;
33714;SDS011;20043;50.998;4.754;2023-04-24T14:19:45;10.32;;;2.90;;
33714;SDS011;20043;50.998;4.754;2023-04-24T14:22:21;8.13;;;2.90;;
33714;SDS011;20043;50.998;4.754;2023-04-24T14:24:46;5.75;;;2.47;;
33714;SDS011;20043;50.998;4.754;2023-04-24T14:27:12;6.90;;;2.90;;
33714;SDS011;20043;50.998;4.754;2023-04-24T14:29:37;8.15;;;2.47;;
33714;SDS011;20043;50.998;4.754;2023-04-24T14:32:03;7.53;;;2.28;;
33714;SDS011;20043;50.998;4.754;2023-04-24T14:34:29;6.13;;;2.25;;